Terminal Aerodrome Forecast
Issued by NWS

Home | Current Version | Previous Version | Text Only | Print | Product List | Glossary On
Versions: 1 2 3 4 5 6 7 8 9 10 11 12 13 14 15
000
FTUS44 KLZK 062300 RRA
TAFADF
TAF
KADF 062345Z 0700/0724 17009KT P6SM SCT080
     FM070900 15006KT P6SM SCT020 BKN060
      TEMPO 0709/0713 2SM BR SCT004 BKN015
     FM071400 19010G18KT P6SM SCT025 BKN050
     FM072100 18008KT P6SM VCTS BKN035CB=

USA.gov is the U.S. government's official web portal to all federal, state and local government web resources and services.